Skip to main content.
^^
Station Historical Data
 
Daily Summary for August 18, 2017 Units:  Metric    English   Both
« Previous Day
Next Day »
Daily Weekly Monthly Yearly Custom
  Current: High: Low: Average:
Temperature: 17.7 °C 20.7 °C 13.4 °C 16 °C
Dew Point: 11.7 °C 15.2 °C 11.7 °C 13.5 °C
Humidity: 68% 96% 62% 86%
Wind Speed: 14.5km/h 24.1km/h 0.0km/h 3.8km/h
Wind Gust: 30.6km/h 33.8km/h - -
WindWNW - - SW
Pressure: 1010.7 hPa 1011.7 hPa 1009.7 hPa -
Precipitation: 4.8 mm      
Historical Graphs
 
 
Tabular Data for August 18, 2017
Time Temperature Dew Point Pressure Wind Wind Speed Wind Gust Humidity Rainfall Rate (Hourly) Conditions
00:00 15.7 °C 13.7 °C 1011.7 hPa SSW 3.2 km/h 9.7 km/h 88% 0.0 mm SCT
00:10 15.6 °C 13.6 °C 1011.4 hPa South 4.8 km/h 9.7 km/h 88% 0.0 mm SCT
00:20 15.5 °C 13.5 °C 1011.4 hPa South 3.2 km/h 8.0 km/h 88% 0.0 mm SCT
00:30 15.4 °C 13.4 °C 1011.7 hPa South 3.2 km/h 9.7 km/h 88% 0.0 mm SCT
00:40 15.4 °C 13.4 °C 1011.7 hPa SSW 3.2 km/h 9.7 km/h 88% 0.0 mm SCT
00:50 15.3 °C 13.3 °C 1011.7 hPa SSW 3.2 km/h 8.0 km/h 88% 0.0 mm SCT
01:00 15.3 °C 13.3 °C 1011.4 hPa SSW 3.2 km/h 8.0 km/h 88% 0.0 mm SCT
01:10 15.3 °C 13.3 °C 1011.7 hPa SSW 3.2 km/h 8.0 km/h 88% 0.0 mm SCT
01:20 15.3 °C 13.3 °C 1011.4 hPa SSW 3.2 km/h 8.0 km/h 88% 0.0 mm SCT
01:30 15.3 °C 13.3 °C 1011.1 hPa SSW 1.6 km/h 4.8 km/h 88% 0.0 mm SCT
01:40 15.3 °C 13.3 °C 1011.1 hPa SW 1.6 km/h 3.2 km/h 88% 0.0 mm SCT
01:50 15.2 °C 13.4 °C 1010.7 hPa SSW 1.6 km/h 3.2 km/h 89% 0.0 mm SCT
02:00 15.2 °C 13.4 °C 1010.7 hPa SSW 1.6 km/h 3.2 km/h 89% 0.0 mm SCT
02:10 15.2 °C 13.4 °C 1010.7 hPa South 3.2 km/h 4.8 km/h 89% 0.0 mm SCT
02:20 15.2 °C 13.5 °C 1010.7 hPa South 3.2 km/h 8.0 km/h 90% 0.0 mm SCT
02:30 15.1 °C 13.4 °C 1010.7 hPa SSE 3.2 km/h 8.0 km/h 90% 0.0 mm SCT
02:40 15.1 °C 13.4 °C 1011.1 hPa South 3.2 km/h 8.0 km/h 90% 0.0 mm SCT
02:50 15.3 °C 13.6 °C 1011.1 hPa South 3.2 km/h 8.0 km/h 90% 0.0 mm SCT
03:00 15.4 °C 13.8 °C 1010.7 hPa South 3.2 km/h 9.7 km/h 90% 0.0 mm SCT
03:10 15.5 °C 13.7 °C 1010.7 hPa South 3.2 km/h 9.7 km/h 89% 0.0 mm SCT
03:20 15.6 °C 13.8 °C 1010.4 hPa South 4.8 km/h 9.7 km/h 89% 0.0 mm SCT
03:30 15.7 °C 13.8 °C 1010.4 hPa South 1.6 km/h 9.7 km/h 89% 0.0 mm SCT
03:40 15.7 °C 13.8 °C 1010.0 hPa South 3.2 km/h 9.7 km/h 89% 0.0 mm SCT
03:50 15.7 °C 13.9 °C 1010.0 hPa South 4.8 km/h 9.7 km/h 89% 0.0 mm SCT
04:00 15.7 °C 13.9 °C 1010.0 hPa South 3.2 km/h 8.0 km/h 89% 0.0 mm SCT
04:10 15.8 °C 14.2 °C 1010.0 hPa South 3.2 km/h 9.7 km/h 90% 0.0 mm SCT
04:30 15.8 °C 14.5 °C 1009.7 hPa SSE 1.6 km/h 8.0 km/h 92% 0.0 mm SCT
04:40 15.7 °C 14.4 °C 1009.7 hPa SSE 1.6 km/h 3.2 km/h 92% 0.5 mm RA
04:50 15.7 °C 14.7 °C 1009.7 hPa Calm   4.8 km/h 94% 1.8 mm RA
05:00 15.5 °C 14.6 °C 1009.7 hPa SSW 3.2 km/h 9.7 km/h 94% 0.8 mm RA
05:10 15.3 °C 14.2 °C 1009.7 hPa SW 1.6 km/h 4.8 km/h 93% 0.3 mm RA
05:20 15.2 °C 14.3 °C 1009.7 hPa SW 3.2 km/h 4.8 km/h 94% 0.0 mm SCT
05:30 15.1 °C 14.2 °C 1009.7 hPa SW 3.2 km/h 14.5 km/h 94% 0.0 mm SCT
05:40 14.8 °C 13.6 °C 1010.0 hPa South 1.6 km/h 8.0 km/h 92% 0.0 mm SCT
05:50 14.5 °C 13.0 °C 1010.0 hPa SW 1.6 km/h 4.8 km/h 91% 0.0 mm SCT
06:00 14.1 °C 12.8 °C 1009.7 hPa South 1.6 km/h 4.8 km/h 92% 0.0 mm SCT
06:10 13.8 °C 12.6 °C 1010.0 hPa South 1.6 km/h 3.2 km/h 92% 0.0 mm SCT
06:20 13.6 °C 12.4 °C 1010.0 hPa South 1.6 km/h 3.2 km/h 93% 0.0 mm SCT
06:30 13.4 °C 12.5 °C 1010.0 hPa SSW 1.6 km/h 4.8 km/h 94% 0.0 mm SCT
06:40 13.4 °C 12.7 °C 1010.0 hPa SSW 3.2 km/h 8.0 km/h 95% 0.0 mm SCT
06:50 13.6 °C 12.8 °C 1010.0 hPa SSW 3.2 km/h 4.8 km/h 95% 0.0 mm SCT
07:00 13.7 °C 13.1 °C 1010.0 hPa SSW 1.6 km/h 8.0 km/h 96% 0.0 mm SCT
07:10 13.8 °C 13.1 °C 1010.0 hPa SSW 3.2 km/h 8.0 km/h 95% 0.0 mm SCT
07:20 13.9 °C 13.1 °C 1010.0 hPa SSW 3.2 km/h 8.0 km/h 95% 0.0 mm SCT
07:30 14.2 °C 13.3 °C 1010.4 hPa SSW 1.6 km/h 3.2 km/h 94% 0.0 mm SCT
07:40 14.4 °C 13.4 °C 1010.0 hPa SSW 3.2 km/h 8.0 km/h 94% 0.0 mm SCT
07:50 14.4 °C 13.4 °C 1010.4 hPa SW 1.6 km/h 4.8 km/h 94% 0.0 mm SCT
08:00 14.6 °C 13.6 °C 1010.4 hPa SSW 3.2 km/h 8.0 km/h 94% 0.0 mm SCT
08:10 14.7 °C 13.8 °C 1010.4 hPa SW 3.2 km/h 8.0 km/h 94% 0.0 mm SCT
08:20 14.8 °C 13.5 °C 1010.4 hPa SW 3.2 km/h 12.9 km/h 92% 0.0 mm SCT
08:30 14.9 °C 13.6 °C 1010.7 hPa SSW 3.2 km/h 11.3 km/h 92% 0.0 mm SCT
08:40 15.1 °C 13.6 °C 1010.7 hPa SW 8.0 km/h 12.9 km/h 91% 0.0 mm SCT
08:50 15.2 °C 13.6 °C 1011.1 hPa WSW 3.2 km/h 12.9 km/h 90% 0.0 mm SCT
09:00 15.3 °C 13.3 °C 1011.1 hPa SW 3.2 km/h 16.1 km/h 88% 0.0 mm SCT
09:10 15.5 °C 13.3 °C 1011.1 hPa SW 3.2 km/h 14.5 km/h 87% 0.0 mm SCT
09:20 15.9 °C 13.4 °C 1011.1 hPa West 4.8 km/h 20.9 km/h 85% 0.0 mm SCT
09:30 16.4 °C 13.6 °C 1011.4 hPa West 3.2 km/h 12.9 km/h 83% 0.0 mm SCT
09:40 16.9 °C 13.7 °C 1011.4 hPa SW 3.2 km/h 14.5 km/h 81% 0.0 mm SCT
09:50 16.9 °C 13.3 °C 1011.4 hPa West 4.8 km/h 16.1 km/h 79% 0.0 mm SCT
10:00 17.3 °C 13.1 °C 1011.4 hPa SW 4.8 km/h 16.1 km/h 76% 0.0 mm SCT
10:10 17.8 °C 13.1 °C 1011.4 hPa WSW 4.8 km/h 14.5 km/h 74% 0.0 mm SCT
10:20 17.7 °C 13.4 °C 1011.4 hPa WNW 9.7 km/h 20.9 km/h 76% 0.0 mm SCT
10:30 17.8 °C 13.3 °C 1011.4 hPa West 3.2 km/h 20.9 km/h 75% 0.0 mm SCT
10:40 18.1 °C 12.9 °C 1011.4 hPa West 1.6 km/h 16.1 km/h 72% 0.0 mm SCT
10:50 18.8 °C 13.9 °C 1011.4 hPa South 3.2 km/h 9.7 km/h 73% 0.0 mm SCT
11:00 19.6 °C 13.5 °C 1011.4 hPa SW 4.8 km/h 11.3 km/h 68% 0.0 mm SCT
11:10 19.3 °C 12.3 °C 1011.4 hPa SSW 4.8 km/h 12.9 km/h 64% 0.0 mm SCT
11:20 19.2 °C 13.3 °C 1011.1 hPa SW 3.2 km/h 8.0 km/h 69% 0.0 mm SCT
11:30 18.5 °C 12.7 °C 1011.4 hPa West 12.9 km/h 24.1 km/h 69% 0.0 mm SCT
11:40 16.7 °C 13.1 °C 1011.4 hPa West 4.8 km/h 20.9 km/h 79% 0.8 mm RA
11:50 15.6 °C 12.6 °C 1011.1 hPa WSW 1.6 km/h 4.8 km/h 82% 0.0 mm SCT
12:00 16.2 °C 14.1 °C 1011.1 hPa West 3.2 km/h 11.3 km/h 87% 0.0 mm SCT
12:10 17.3 °C 14.3 °C 1010.7 hPa WSW 3.2 km/h 8.0 km/h 82% 0.0 mm SCT
12:20 18.6 °C 15.2 °C 1010.7 hPa SW 3.2 km/h 14.5 km/h 81% 0.0 mm SCT
12:30 19.2 °C 14.3 °C 1010.7 hPa SW 3.2 km/h 9.7 km/h 73% 0.0 mm SCT
12:40 19.3 °C 14.5 °C 1010.4 hPa SSW 4.8 km/h 9.7 km/h 74% 0.0 mm SCT
13:00 20.1 °C 13.5 °C 1010.7 hPa SW 4.8 km/h 14.5 km/h 66% 0.0 mm SCT
13:10 20.7 °C 13.9 °C 1010.4 hPa SW 3.2 km/h 12.9 km/h 65% 0.0 mm SCT
13:20 20.5 °C 12.9 °C 1011.1 hPa West 24.1 km/h 33.8 km/h 62% 0.0 mm SCT
13:30 18.7 °C 11.8 °C 1010.7 hPa NW 11.3 km/h 30.6 km/h 64% 0.0 mm SCT
13:40 17.7 °C 11.7 °C 1010.7 hPa WNW 14.5 km/h 30.6 km/h 68% 0.0 mm SCT
Sandhurst Weather
Compliments of Weather Underground - 1.25 mb

Contact Us | Back to Top
Powered by Weather Display v10.37R build 81

Never base important decisions on this or any weather information obtained from the Internet.
Weather data on this site is not quality controlled and continuity of service is not guaranteed.


xhtml  css